Edzard Schulte — 2CVX9 — position and weather

sailwx.info

Track history (hours):
 
Tides and Currents Weather Stations Pressure Air Temp Water Temp Dewpoint Dewpoint Depression Visibility Wind Speed Wind Dir Waves Ship Positions

Edzard Schulte

Last reported at 2017-May-26 01:24 UTC. Time now 2017-May-26 01:53 UTC.
Position N 51°53' E 004°19'.

Length 145 m; draft 8 m.

Type: Ship (hazmat cat B). MMSI: 235076245.

Date/timePositionNaut miles runAvg speedWind from/ knotsBaromVisibWave heightAir tempDewpointWater temp
2017-May-26 01:24N 51°53' E 004°19'0 0.0
2017-May-26 01:00N 51°53' E 004°19'0 0.0
2017-May-26 00:30N 51°53' E 004°19'0 0.0
2017-May-26 00:00N 51°53' E 004°19'0 0.0
2017-May-25 23:24N 51°53' E 004°19'0 0.0
2017-May-25 22:54N 51°53' E 004°19'0 0.0
2017-May-25 22:30N 51°53' E 004°19'0 0.0
2017-May-25 21:57N 51°53' E 004°19'0 0.0
2017-May-25 21:30N 51°53' E 004°19'0 0.0
2017-May-25 21:00N 51°53' E 004°19'0 0.0
2017-May-25 20:30N 51°53' E 004°19'0 0.0
2017-May-25 20:00N 51°53' E 004°19'0 0.0
2017-May-25 19:30N 51°53' E 004°19'0 0.0
2017-May-25 19:01N 51°53' E 004°19'1 2.1
2017-May-25 18:31N 51°54' E 004°18'3 5.6
2017-May-25 18:00N 51°55' E 004°14'3 6.5
2017-May-25 17:30N 51°57' E 004°10'4 7.5
2017-May-25 17:00N 51°59' E 004°05'4 8.3
2017-May-25 16:30N 52°00' E 003°59'4 7.4
2017-May-25 16:01N 52°03' E 003°54'510.4
2017-May-25 15:30N 52°06' E 004°01'611.1
2017-May-25 15:00N 52°09' E 004°09'4 8.0
2017-May-25 14:30N 52°12' E 004°13'0 0.4
2017-May-25 13:29N 52°12' E 004°13'0 0.3
2017-May-25 13:01N 52°12' E 004°13'0 0.4
2017-May-25 12:28N 52°12' E 004°14'0 0.2
2017-May-25 11:58N 52°12' E 004°14'0 0.1
2017-May-25 11:28N 52°12' E 004°14'0 0.0
2017-May-25 10:59N 52°12' E 004°13'0 0.0
2017-May-25 10:28N 52°12' E 004°13'0 0.0
2017-May-25 09:58N 52°12' E 004°13'0 0.0
2017-May-25 09:29N 52°12' E 004°13'0 0.0
2017-May-25 08:58N 52°12' E 004°13'0 0.0
2017-May-25 08:26N 52°12' E 004°13'0 0.0
2017-May-25 07:58N 52°12' E 004°13'0 0.0
2017-May-25 07:28N 52°12' E 004°13'0 0.1
2017-May-25 06:59N 52°12' E 004°14'0 0.0
2017-May-25 06:29N 52°12' E 004°14'0 0.1
2017-May-25 05:58N 52°12' E 004°14'0 0.1
2017-May-25 05:28N 52°12' E 004°14'0 0.1
2017-May-25 04:59N 52°12' E 004°14'0 0.1
2017-May-25 04:28N 52°12' E 004°14'0 0.0
2017-May-25 03:58N 52°12' E 004°14'0 0.0
2017-May-25 03:28N 52°12' E 004°14'0 0.0
2017-May-25 02:58N 52°12' E 004°14'0 0.0
2017-May-25 02:29N 52°12' E 004°14'0 0.0
2017-May-25 01:58N 52°12' E 004°14'0 0.0
2017-May-25 01:28N 52°12' E 004°14'0 0.0
2017-May-25 00:58N 52°12' E 004°14'0 0.0
2017-May-25 00:29N 52°12' E 004°14'0 0.1
2017-May-24 23:58N 52°12' E 004°13'0 0.3
2017-May-24 23:28N 52°12' E 004°13'0 0.0
2017-May-24 22:58N 52°12' E 004°13'0 0.0
2017-May-24 22:28N 52°12' E 004°13'0 0.0
2017-May-24 21:58N 52°12' E 004°13'0 0.0
2017-May-24 21:28N 52°12' E 004°13'0 0.0
2017-May-24 20:58N 52°12' E 004°13'0 0.0
2017-May-24 20:28N 52°12' E 004°13'0 0.0
2017-May-24 19:58N 52°12' E 004°13'0 0.0
2017-May-24 19:23N 52°12' E 004°13'0 0.0
2017-May-24 18:58N 52°12' E 004°13'0 0.0
2017-May-24 18:28N 52°12' E 004°14'0 0.0
2017-May-24 17:58N 52°12' E 004°14'0 0.1
2017-May-24 17:22N 52°12' E 004°14'0 0.1
2017-May-24 16:58N 52°12' E 004°14'0 0.1
2017-May-24 16:28N 52°12' E 004°14'0 0.1
2017-May-24 15:58N 52°12' E 004°14'0 0.0
2017-May-24 15:28N 52°12' E 004°14'0 0.0
2017-May-24 14:58N 52°12' E 004°14'0 0.0
2017-May-24 14:22N 52°12' E 004°14'0 0.0
2017-May-24 13:28N 52°12' E 004°14'0 0.0
2017-May-24 12:58N 52°12' E 004°14'0 0.0
2017-May-24 12:28N 52°12' E 004°14'0 0.0
2017-May-24 11:58N 52°12' E 004°14'0 0.1
2017-May-24 11:28N 52°12' E 004°14'0 0.3
2017-May-24 10:58N 52°12' E 004°14'0 0.1
2017-May-24 10:28N 52°12' E 004°14'0 0.0
2017-May-24 09:58N 52°12' E 004°13'0 0.0
2017-May-24 09:28N 52°12' E 004°13'0 0.0
2017-May-24 08:58N 52°12' E 004°13'0 0.0
2017-May-24 08:28N 52°12' E 004°13'0 0.0
2017-May-24 07:58N 52°12' E 004°13'0 0.0
2017-May-24 07:28N 52°12' E 004°13'0 0.0
2017-May-24 06:58N 52°12' E 004°13'0 0.1
2017-May-24 06:28N 52°12' E 004°14'0 0.0
2017-May-24 05:58N 52°12' E 004°14'0 0.1
2017-May-24 05:28N 52°12' E 004°14'0 0.1
2017-May-24 04:58N 52°12' E 004°14'0 0.1
2017-May-24 04:28N 52°12' E 004°14'0 0.1
2017-May-24 03:58N 52°12' E 004°14'0 0.0
2017-May-24 03:28N 52°12' E 004°14'0 0.0
2017-May-24 02:58N 52°12' E 004°14'0 0.0
2017-May-24 02:28N 52°12' E 004°14'0 0.0
2017-May-24 01:58N 52°12' E 004°14'0 0.0
2017-May-24 01:28N 52°12' E 004°14'0 0.0
2017-May-24 00:58N 52°12' E 004°14'0 0.0
2017-May-24 00:28N 52°12' E 004°14'0 0.0
2017-May-23 23:58N 52°12' E 004°14'0 0.0
2017-May-23 23:28N 52°12' E 004°14'0 0.1
2017-May-23 22:58N 52°12' E 004°13'0 0.3
2017-May-23 22:28N 52°12' E 004°13'0 0.0
2017-May-23 21:58N 52°12' E 004°13'0 0.0
2017-May-23 21:28N 52°12' E 004°13'0 0.0
2017-May-23 20:55N 52°12' E 004°13'0 0.0
2017-May-23 20:28N 52°12' E 004°13'0 0.0
2017-May-23 19:58N 52°12' E 004°13'0 0.0
2017-May-23 19:28N 52°12' E 004°13'0 0.0
2017-May-23 18:58N 52°12' E 004°13'0 0.0
2017-May-23 18:28N 52°12' E 004°13'0 0.0
2017-May-23 17:58N 52°12' E 004°13'0 0.0
2017-May-23 17:28N 52°12' E 004°13'0 0.0
2017-May-23 16:58N 52°12' E 004°14'0 0.1
2017-May-23 16:28N 52°12' E 004°14'0 0.1
2017-May-23 15:58N 52°12' E 004°14'0 0.1
2017-May-23 15:28N 52°12' E 004°14'0 0.0
2017-May-23 14:58N 52°12' E 004°14'0 0.0
2017-May-23 13:58N 52°12' E 004°14'0 0.0
2017-May-23 13:28N 52°12' E 004°14'0 0.0
2017-May-23 12:58N 52°12' E 004°14'0 0.0
2017-May-23 12:28N 52°12' E 004°14'0 0.0
2017-May-23 11:58N 52°12' E 004°14'0 0.0
2017-May-23 11:28N 52°12' E 004°14'0 0.1
2017-May-23 10:58N 52°12' E 004°14'0 0.1
2017-May-23 10:28N 52°12' E 004°14'0 0.1
2017-May-23 09:58N 52°12' E 004°14'0 0.0
2017-May-23 09:28N 52°12' E 004°14'0 0.0
2017-May-23 08:58N 52°12' E 004°14'0 0.0
2017-May-23 08:28N 52°12' E 004°13'0 0.0
2017-May-23 07:58N 52°12' E 004°13'0 0.0
2017-May-23 07:28N 52°12' E 004°13'0 0.0
2017-May-23 06:55N 52°12' E 004°14'0 0.0
2017-May-23 06:28N 52°12' E 004°13'0 0.0
2017-May-23 05:58N 52°12' E 004°13'0 0.1
2017-May-23 05:28N 52°12' E 004°14'0 0.1
2017-May-23 04:58N 52°12' E 004°14'0 0.1
2017-May-23 04:28N 52°12' E 004°14'0 0.1
2017-May-23 03:58N 52°12' E 004°14'0 0.1
2017-May-23 03:28N 52°12' E 004°14'0 0.0
2017-May-23 02:58N 52°12' E 004°14'0 0.0
2017-May-23 02:28N 52°12' E 004°14'0 0.0
2017-May-23 01:58N 52°12' E 004°14'0 0.0
2017-May-23 01:28N 52°12' E 004°14'0 0.0
2017-May-23 00:58N 52°12' E 004°14'0 0.0
2017-May-23 00:28N 52°12' E 004°14'0 0.0
2017-May-22 23:58N 52°12' E 004°14'0 0.0
2017-May-22 23:28N 52°12' E 004°14'0 0.0
2017-May-22 22:58N 52°12' E 004°14'0 0.0
2017-May-22 22:28N 52°12' E 004°14'0 0.1
2017-May-22 21:58N 52°12' E 004°13'0 0.2
2017-May-22 21:28N 52°12' E 004°13'0 0.1
2017-May-22 20:58N 52°12' E 004°13'0 0.0
2017-May-22 20:28N 52°12' E 004°13'0 0.0
2017-May-22 19:58N 52°12' E 004°13'0 0.0
2017-May-22 19:28N 52°12' E 004°13'0 0.0
2017-May-22 18:58N 52°12' E 004°13'0 0.0
2017-May-22 18:28N 52°12' E 004°13'0 0.0
2017-May-22 17:58N 52°12' E 004°13'0 0.0
2017-May-22 17:28N 52°12' E 004°13'0 0.0
2017-May-22 16:58N 52°12' E 004°14'0 0.0
2017-May-22 16:22N 52°12' E 004°14'0 0.0
2017-May-22 15:58N 52°12' E 004°14'0 0.1
2017-May-22 15:28N 52°12' E 004°14'0 0.2
2017-May-22 14:58N 52°12' E 004°14'0 0.1
2017-May-22 13:55N 52°12' E 004°14'0 0.0
2017-May-22 13:28N 52°12' E 004°14'0 0.0
2017-May-22 12:58N 52°12' E 004°14'0 0.0
2017-May-22 12:22N 52°12' E 004°14'0 0.0
2017-May-22 11:58N 52°12' E 004°14'0 0.0
2017-May-22 11:28N 52°12' E 004°14'0 0.0
2017-May-22 10:58N 52°12' E 004°14'0 0.0
2017-May-22 10:28N 52°12' E 004°14'0 0.1
2017-May-22 09:58N 52°12' E 004°14'0 0.0
2017-May-22 09:28N 52°12' E 004°14'0 0.1
2017-May-22 08:58N 52°12' E 004°13'0 0.1
2017-May-22 08:28N 52°12' E 004°13'0 0.1
2017-May-22 07:58N 52°12' E 004°13'0 0.1
2017-May-22 07:28N 52°12' E 004°13'0 0.0
2017-May-22 06:58N 52°12' E 004°13'0 0.1
2017-May-22 06:28N 52°12' E 004°13'0 0.0
2017-May-22 05:58N 52°12' E 004°13'0 0.0
2017-May-22 05:28N 52°12' E 004°13'0 0.0
2017-May-22 04:58N 52°12' E 004°13'0 0.0
2017-May-22 04:28N 52°12' E 004°14'0 0.0
2017-May-22 03:58N 52°12' E 004°13'0 0.3
2017-May-22 03:28N 52°12' E 004°13'0 0.1
2017-May-22 02:58N 52°12' E 004°14'0 0.1
2017-May-22 02:28N 52°12' E 004°14'0 0.0
2017-May-22 01:58N 52°12' E 004°14'0 0.0
2017-May-22 01:25N 52°12' E 004°14'0 0.0
2017-May-22 00:52N 52°12' E 004°14'0 0.0
2017-May-22 00:28N 52°12' E 004°14'0 0.0
2017-May-21 23:58N 52°12' E 004°14'0 0.0
2017-May-21 23:28N 52°12' E 004°14'0 0.0
2017-May-21 22:58N 52°12' E 004°14'0 0.0
2017-May-21 22:28N 52°12' E 004°14'0 0.0
2017-May-21 21:58N 52°12' E 004°14'0 0.1
2017-May-21 21:28N 52°12' E 004°13'0 0.2
2017-May-21 20:58N 52°12' E 004°13'0 0.1
2017-May-21 20:28N 52°12' E 004°13'0 0.1
2017-May-21 19:58N 52°12' E 004°13'0 0.0
2017-May-21 19:28N 52°12' E 004°13'0 0.0
2017-May-21 18:58N 52°12' E 004°13'0 0.0
2017-May-21 18:28N 52°12' E 004°13'0 0.0
2017-May-21 17:58N 52°12' E 004°13'0 0.0
2017-May-21 17:28N 52°12' E 004°13'0 0.0
2017-May-21 16:58N 52°12' E 004°13'0 0.1
2017-May-21 16:28N 52°12' E 004°13'0 0.0
2017-May-21 15:58N 52°12' E 004°13'0 0.0
2017-May-21 15:25N 52°12' E 004°13'0 0.0
2017-May-21 14:58N 52°12' E 004°13'0 0.1
2017-May-21 13:58N 52°12' E 004°14'0 0.0
2017-May-21 13:28N 52°12' E 004°14'0 0.1
2017-May-21 12:58N 52°12' E 004°14'0 0.1
2017-May-21 12:28N 52°12' E 004°14'0 0.0
2017-May-21 11:58N 52°12' E 004°14'0 0.0
2017-May-21 11:28N 52°12' E 004°14'0 0.0
2017-May-21 10:58N 52°12' E 004°14'0 0.0
2017-May-21 10:28N 52°12' E 004°14'0 0.0
2017-May-21 09:58N 52°12' E 004°14'0 0.0
2017-May-21 09:28N 52°12' E 004°14'0 0.0
2017-May-21 08:58N 52°12' E 004°14'0 0.0
2017-May-21 08:28N 52°12' E 004°14'0 0.0
2017-May-21 07:58N 52°12' E 004°14'0 0.0
2017-May-21 07:28N 52°12' E 004°14'0 0.2
2017-May-21 06:52N 52°12' E 004°14'0 0.1
2017-May-21 06:28N 52°12' E 004°13'0 0.0
2017-May-21 05:58N 52°12' E 004°13'0 0.0
2017-May-21 05:28N 52°12' E 004°13'0 0.0
2017-May-21 04:58N 52°12' E 004°13'0 0.0
2017-May-21 04:28N 52°12' E 004°13'0 0.0
2017-May-21 03:58N 52°12' E 004°13'0 0.1
2017-May-21 03:28N 52°12' E 004°14'0 0.1
2017-May-21 02:58N 52°12' E 004°14'0 0.1
2017-May-21 02:28N 52°12' E 004°14'0 0.0
2017-May-21 01:58N 52°12' E 004°14'0 0.1
2017-May-21 01:28N 52°12' E 004°14'0 0.0
2017-May-21 00:58N 52°12' E 004°14'0 0.0
2017-May-21 00:28N 52°12' E 004°14'0 0.0
2017-May-20 23:58N 52°12' E 004°14'0 0.1
2017-May-20 23:28N 52°12' E 004°14'0 0.0
2017-May-20 22:58N 52°12' E 004°14'0 0.3
2017-May-20 22:30N 52°12' E 004°14'3 5.5
2017-May-20 22:00N 52°13' E 004°09'611.8
2017-May-20 21:30N 52°12' E 003°60'713.0
2017-May-20 21:00N 52°12' E 003°49'2411.2
2017-May-20 18:52N 51°56' E 003°20'65 4.7
2017-May-20 05:11N 53°01' E 003°19'513.0
2017-May-20 04:48N 53°06' E 003°21'613.0
2017-May-20 04:20N 53°11' E 003°24'33912.1
2017-May-19 00:18N 57°40' E 009°28'1311.6
2017-May-18 23:13N 57°47' E 009°48'211.4
2017-May-18 23:00N 57°48' E 009°52'611.3
2017-May-18 22:28N 57°48' E 010°03'611.4
2017-May-18 21:58N 57°50' E 010°14'511.3
2017-May-18 21:30N 57°50' E 010°23'611.2
2017-May-18 21:00N 57°51' E 010°34'511.0
2017-May-18 20:30N 57°51' E 010°44'611.1
2017-May-18 20:00N 57°46' E 010°50'612.2
2017-May-18 19:30N 57°42' E 010°59'612.6
2017-May-18 19:00N 57°38' E 011°07'613.0
2017-May-18 18:30N 57°33' E 011°16'612.9
2017-May-18 18:00N 57°29' E 011°25'612.5
2017-May-18 17:30N 57°23' E 011°29'713.1
2017-May-18 17:00N 57°17' E 011°34'713.5
2017-May-18 16:29N 57°10' E 011°38'613.1
2017-May-18 15:59N 57°04' E 011°42'12711.2
2017-May-18 04:36N 54°59' E 011°01'212.5
2017-May-18 04:27N 54°58' E 010°59'612.3
2017-May-18 04:00N 54°53' E 010°54'612.7
2017-May-18 03:30N 54°47' E 010°52'5 9.3
2017-May-18 03:00N 54°43' E 010°53'5 9.9
2017-May-18 02:29N 54°39' E 011°00'612.9
2017-May-18 02:00N 54°36' E 011°10'612.9
2017-May-18 01:30N 54°33' E 011°19'612.8
2017-May-18 01:00N 54°31' E 011°30'1812.0
2017-May-17 23:31N 54°26' E 011°59'012.2
2017-May-17 23:30N 54°26' E 011°59'612.0
2017-May-17 23:00N 54°27' E 012°09'611.4
2017-May-17 22:30N 54°33' E 012°12'611.8
2017-May-17 22:00N 54°38' E 012°16'5812.2
2017-May-17 17:18N 55°01' E 013°47'512.3
2017-May-17 16:55N 55°03' E 013°55'612.3
2017-May-17 16:26N 55°05' E 014°05'512.0
2017-May-17 16:00N 55°09' E 014°11'612.1
2017-May-17 15:30N 55°14' E 014°17'612.3
2017-May-17 15:00N 55°18' E 014°24'612.6
2017-May-17 14:31N 55°23' E 014°30'1211.8
2017-May-17 13:31N 55°30' E 014°47'611.5
2017-May-17 13:00N 55°33' E 014°56'611.9
2017-May-17 12:30N 55°35' E 015°06'612.1
2017-May-17 12:00N 55°38' E 015°16'612.2
2017-May-17 11:30N 55°40' E 015°26'612.2
2017-May-17 11:00N 55°41' E 015°36'612.1
2017-May-17 10:30N 55°42' E 015°47'612.2
2017-May-17 10:00N 55°44' E 015°57'612.0
2017-May-17 09:30N 55°46' E 016°08'612.1
2017-May-17 09:00N 55°47' E 016°18'612.2
2017-May-17 08:30N 55°48' E 016°29'712.2
2017-May-17 07:56N 55°50' E 016°41'2212.1
2017-May-17 06:05N 55°56' E 017°19'112.1
2017-May-17 05:58N 55°56' E 017°22'2012.0
2017-May-17 04:19N 56°03' E 017°55'412.0
2017-May-17 03:57N 56°06' E 018°01'712.1
2017-May-17 03:25N 56°09' E 018°11'712.3
2017-May-17 02:53N 56°13' E 018°21'512.4
2017-May-17 02:27N 56°15' E 018°29'2412.1
2017-May-17 00:30N 56°33' E 018°58'1612.5
2017-May-16 23:15N 56°45' E 019°16'312.5
2017-May-16 23:00N 56°47' E 019°20'612.5
2017-May-16 22:30N 56°52' E 019°27'612.5
2017-May-16 22:00N 56°57' E 019°35'612.4
2017-May-16 21:30N 57°02' E 019°42'612.4
2017-May-16 21:00N 57°06' E 019°49'  
Track history (hours):
 
Tides and Currents Weather Stations Pressure Air Temp Water Temp Dewpoint Dewpoint Depression Visibility Wind Speed Wind Dir Waves Ship Positions

Edzard Schulte

Last reported at 2017-May-26 01:24 UTC. Time now 2017-May-26 01:53 UTC.
Position N 51°53' E 004°19'.

Length 145 m; draft 8 m.

Type: Ship (hazmat cat B). MMSI: 235076245.

Date/timePositionNaut miles runAvg speedWind from/ knotsBaromVisibWave heightAir tempDewpointWater temp
2017-May-26 01:24N 51°53' E 004°19'0 0.0
2017-May-26 01:00N 51°53' E 004°19'0 0.0
2017-May-26 00:30N 51°53' E 004°19'0 0.0
2017-May-26 00:00N 51°53' E 004°19'0 0.0
2017-May-25 23:24N 51°53' E 004°19'0 0.0
2017-May-25 22:54N 51°53' E 004°19'0 0.0
2017-May-25 22:30N 51°53' E 004°19'0 0.0
2017-May-25 21:57N 51°53' E 004°19'0 0.0
2017-May-25 21:30N 51°53' E 004°19'0 0.0
2017-May-25 21:00N 51°53' E 004°19'0 0.0
2017-May-25 20:30N 51°53' E 004°19'0 0.0
2017-May-25 20:00N 51°53' E 004°19'0 0.0
2017-May-25 19:30N 51°53' E 004°19'0 0.0
2017-May-25 19:01N 51°53' E 004°19'1 2.1
2017-May-25 18:31N 51°54' E 004°18'3 5.6
2017-May-25 18:00N 51°55' E 004°14'3 6.5
2017-May-25 17:30N 51°57' E 004°10'4 7.5
2017-May-25 17:00N 51°59' E 004°05'4 8.3
2017-May-25 16:30N 52°00' E 003°59'4 7.4
2017-May-25 16:01N 52°03' E 003°54'510.4
2017-May-25 15:30N 52°06' E 004°01'611.1
2017-May-25 15:00N 52°09' E 004°09'4 8.0
2017-May-25 14:30N 52°12' E 004°13'0 0.4
2017-May-25 13:29N 52°12' E 004°13'0 0.3
2017-May-25 13:01N 52°12' E 004°13'0 0.4
2017-May-25 12:28N 52°12' E 004°14'0 0.2
2017-May-25 11:58N 52°12' E 004°14'0 0.1
2017-May-25 11:28N 52°12' E 004°14'0 0.0
2017-May-25 10:59N 52°12' E 004°13'0 0.0
2017-May-25 10:28N 52°12' E 004°13'0 0.0
2017-May-25 09:58N 52°12' E 004°13'0 0.0
2017-May-25 09:29N 52°12' E 004°13'0 0.0
2017-May-25 08:58N 52°12' E 004°13'0 0.0
2017-May-25 08:26N 52°12' E 004°13'0 0.0
2017-May-25 07:58N 52°12' E 004°13'0 0.0
2017-May-25 07:28N 52°12' E 004°13'0 0.1
2017-May-25 06:59N 52°12' E 004°14'0 0.0
2017-May-25 06:29N 52°12' E 004°14'0 0.1
2017-May-25 05:58N 52°12' E 004°14'0 0.1
2017-May-25 05:28N 52°12' E 004°14'0 0.1
2017-May-25 04:59N 52°12' E 004°14'0 0.1
2017-May-25 04:28N 52°12' E 004°14'0 0.0
2017-May-25 03:58N 52°12' E 004°14'0 0.0
2017-May-25 03:28N 52°12' E 004°14'0 0.0
2017-May-25 02:58N 52°12' E 004°14'0 0.0
2017-May-25 02:29N 52°12' E 004°14'0 0.0
2017-May-25 01:58N 52°12' E 004°14'0 0.0
2017-May-25 01:28N 52°12' E 004°14'0 0.0
2017-May-25 00:58N 52°12' E 004°14'0 0.0
2017-May-25 00:29N 52°12' E 004°14'0 0.1
2017-May-24 23:58N 52°12' E 004°13'0 0.3
2017-May-24 23:28N 52°12' E 004°13'0 0.0
2017-May-24 22:58N 52°12' E 004°13'0 0.0
2017-May-24 22:28N 52°12' E 004°13'0 0.0
2017-May-24 21:58N 52°12' E 004°13'0 0.0
2017-May-24 21:28N 52°12' E 004°13'0 0.0
2017-May-24 20:58N 52°12' E 004°13'0 0.0
2017-May-24 20:28N 52°12' E 004°13'0 0.0
2017-May-24 19:58N 52°12' E 004°13'0 0.0
2017-May-24 19:23N 52°12' E 004°13'0 0.0
2017-May-24 18:58N 52°12' E 004°13'0 0.0
2017-May-24 18:28N 52°12' E 004°14'0 0.0
2017-May-24 17:58N 52°12' E 004°14'0 0.1
2017-May-24 17:22N 52°12' E 004°14'0 0.1
2017-May-24 16:58N 52°12' E 004°14'0 0.1
2017-May-24 16:28N 52°12' E 004°14'0 0.1
2017-May-24 15:58N 52°12' E 004°14'0 0.0
2017-May-24 15:28N 52°12' E 004°14'0 0.0
2017-May-24 14:58N 52°12' E 004°14'0 0.0
2017-May-24 14:22N 52°12' E 004°14'0 0.0
2017-May-24 13:28N 52°12' E 004°14'0 0.0
2017-May-24 12:58N 52°12' E 004°14'0 0.0
2017-May-24 12:28N 52°12' E 004°14'0 0.0
2017-May-24 11:58N 52°12' E 004°14'0 0.1
2017-May-24 11:28N 52°12' E 004°14'0 0.3
2017-May-24 10:58N 52°12' E 004°14'0 0.1
2017-May-24 10:28N 52°12' E 004°14'0 0.0
2017-May-24 09:58N 52°12' E 004°13'0 0.0
2017-May-24 09:28N 52°12' E 004°13'0 0.0
2017-May-24 08:58N 52°12' E 004°13'0 0.0
2017-May-24 08:28N 52°12' E 004°13'0 0.0
2017-May-24 07:58N 52°12' E 004°13'0 0.0
2017-May-24 07:28N 52°12' E 004°13'0 0.0
2017-May-24 06:58N 52°12' E 004°13'0 0.1
2017-May-24 06:28N 52°12' E 004°14'0 0.0
2017-May-24 05:58N 52°12' E 004°14'0 0.1
2017-May-24 05:28N 52°12' E 004°14'0 0.1
2017-May-24 04:58N 52°12' E 004°14'0 0.1
2017-May-24 04:28N 52°12' E 004°14'0 0.1
2017-May-24 03:58N 52°12' E 004°14'0 0.0
2017-May-24 03:28N 52°12' E 004°14'0 0.0
2017-May-24 02:58N 52°12' E 004°14'0 0.0
2017-May-24 02:28N 52°12' E 004°14'0 0.0
2017-May-24 01:58N 52°12' E 004°14'0 0.0
2017-May-24 01:28N 52°12' E 004°14'0 0.0
2017-May-24 00:58N 52°12' E 004°14'0 0.0
2017-May-24 00:28N 52°12' E 004°14'0 0.0
2017-May-23 23:58N 52°12' E 004°14'0 0.0
2017-May-23 23:28N 52°12' E 004°14'0 0.1
2017-May-23 22:58N 52°12' E 004°13'0 0.3
2017-May-23 22:28N 52°12' E 004°13'0 0.0
2017-May-23 21:58N 52°12' E 004°13'0 0.0
2017-May-23 21:28N 52°12' E 004°13'0 0.0
2017-May-23 20:55N 52°12' E 004°13'0 0.0
2017-May-23 20:28N 52°12' E 004°13'0 0.0
2017-May-23 19:58N 52°12' E 004°13'0 0.0
2017-May-23 19:28N 52°12' E 004°13'0 0.0
2017-May-23 18:58N 52°12' E 004°13'0 0.0
2017-May-23 18:28N 52°12' E 004°13'0 0.0
2017-May-23 17:58N 52°12' E 004°13'0 0.0
2017-May-23 17:28N 52°12' E 004°13'0 0.0
2017-May-23 16:58N 52°12' E 004°14'0 0.1
2017-May-23 16:28N 52°12' E 004°14'0 0.1
2017-May-23 15:58N 52°12' E 004°14'0 0.1
2017-May-23 15:28N 52°12' E 004°14'0 0.0
2017-May-23 14:58N 52°12' E 004°14'0 0.0
2017-May-23 13:58N 52°12' E 004°14'0 0.0
2017-May-23 13:28N 52°12' E 004°14'0 0.0
2017-May-23 12:58N 52°12' E 004°14'0 0.0
2017-May-23 12:28N 52°12' E 004°14'0 0.0
2017-May-23 11:58N 52°12' E 004°14'0 0.0
2017-May-23 11:28N 52°12' E 004°14'0 0.1
2017-May-23 10:58N 52°12' E 004°14'0 0.1
2017-May-23 10:28N 52°12' E 004°14'0 0.1
2017-May-23 09:58N 52°12' E 004°14'0 0.0
2017-May-23 09:28N 52°12' E 004°14'0 0.0
2017-May-23 08:58N 52°12' E 004°14'0 0.0
2017-May-23 08:28N 52°12' E 004°13'0 0.0
2017-May-23 07:58N 52°12' E 004°13'0 0.0
2017-May-23 07:28N 52°12' E 004°13'0 0.0
2017-May-23 06:55N 52°12' E 004°14'0 0.0
2017-May-23 06:28N 52°12' E 004°13'0 0.0
2017-May-23 05:58N 52°12' E 004°13'0 0.1
2017-May-23 05:28N 52°12' E 004°14'0 0.1
2017-May-23 04:58N 52°12' E 004°14'0 0.1
2017-May-23 04:28N 52°12' E 004°14'0 0.1
2017-May-23 03:58N 52°12' E 004°14'0 0.1
2017-May-23 03:28N 52°12' E 004°14'0 0.0
2017-May-23 02:58N 52°12' E 004°14'0 0.0
2017-May-23 02:28N 52°12' E 004°14'0 0.0
2017-May-23 01:58N 52°12' E 004°14'0 0.0
2017-May-23 01:28N 52°12' E 004°14'0 0.0
2017-May-23 00:58N 52°12' E 004°14'0 0.0
2017-May-23 00:28N 52°12' E 004°14'0 0.0
2017-May-22 23:58N 52°12' E 004°14'0 0.0
2017-May-22 23:28N 52°12' E 004°14'0 0.0
2017-May-22 22:58N 52°12' E 004°14'0 0.0
2017-May-22 22:28N 52°12' E 004°14'0 0.1
2017-May-22 21:58N 52°12' E 004°13'0 0.2
2017-May-22 21:28N 52°12' E 004°13'0 0.1
2017-May-22 20:58N 52°12' E 004°13'0 0.0
2017-May-22 20:28N 52°12' E 004°13'0 0.0
2017-May-22 19:58N 52°12' E 004°13'0 0.0
2017-May-22 19:28N 52°12' E 004°13'0 0.0
2017-May-22 18:58N 52°12' E 004°13'0 0.0
2017-May-22 18:28N 52°12' E 004°13'0 0.0
2017-May-22 17:58N 52°12' E 004°13'0 0.0
2017-May-22 17:28N 52°12' E 004°13'0 0.0
2017-May-22 16:58N 52°12' E 004°14'0 0.0
2017-May-22 16:22N 52°12' E 004°14'0 0.0
2017-May-22 15:58N 52°12' E 004°14'0 0.1
2017-May-22 15:28N 52°12' E 004°14'0 0.2
2017-May-22 14:58N 52°12' E 004°14'0 0.1
2017-May-22 13:55N 52°12' E 004°14'0 0.0
2017-May-22 13:28N 52°12' E 004°14'0 0.0
2017-May-22 12:58N 52°12' E 004°14'0 0.0
2017-May-22 12:22N 52°12' E 004°14'0 0.0
2017-May-22 11:58N 52°12' E 004°14'0 0.0
2017-May-22 11:28N 52°12' E 004°14'0 0.0
2017-May-22 10:58N 52°12' E 004°14'0 0.0
2017-May-22 10:28N 52°12' E 004°14'0 0.1
2017-May-22 09:58N 52°12' E 004°14'0 0.0
2017-May-22 09:28N 52°12' E 004°14'0 0.1
2017-May-22 08:58N 52°12' E 004°13'0 0.1
2017-May-22 08:28N 52°12' E 004°13'0 0.1
2017-May-22 07:58N 52°12' E 004°13'0 0.1
2017-May-22 07:28N 52°12' E 004°13'0 0.0
2017-May-22 06:58N 52°12' E 004°13'0 0.1
2017-May-22 06:28N 52°12' E 004°13'0 0.0
2017-May-22 05:58N 52°12' E 004°13'0 0.0
2017-May-22 05:28N 52°12' E 004°13'0 0.0
2017-May-22 04:58N 52°12' E 004°13'0 0.0
2017-May-22 04:28N 52°12' E 004°14'0 0.0
2017-May-22 03:58N 52°12' E 004°13'0 0.3
2017-May-22 03:28N 52°12' E 004°13'0 0.1
2017-May-22 02:58N 52°12' E 004°14'0 0.1
2017-May-22 02:28N 52°12' E 004°14'0 0.0
2017-May-22 01:58N 52°12' E 004°14'0 0.0
2017-May-22 01:25N 52°12' E 004°14'0 0.0
2017-May-22 00:52N 52°12' E 004°14'0 0.0
2017-May-22 00:28N 52°12' E 004°14'0 0.0
2017-May-21 23:58N 52°12' E 004°14'0 0.0
2017-May-21 23:28N 52°12' E 004°14'0 0.0
2017-May-21 22:58N 52°12' E 004°14'0 0.0
2017-May-21 22:28N 52°12' E 004°14'0 0.0
2017-May-21 21:58N 52°12' E 004°14'0 0.1
2017-May-21 21:28N 52°12' E 004°13'0 0.2
2017-May-21 20:58N 52°12' E 004°13'0 0.1
2017-May-21 20:28N 52°12' E 004°13'0 0.1
2017-May-21 19:58N 52°12' E 004°13'0 0.0
2017-May-21 19:28N 52°12' E 004°13'0 0.0
2017-May-21 18:58N 52°12' E 004°13'0 0.0
2017-May-21 18:28N 52°12' E 004°13'0 0.0
2017-May-21 17:58N 52°12' E 004°13'0 0.0
2017-May-21 17:28N 52°12' E 004°13'0 0.0
2017-May-21 16:58N 52°12' E 004°13'0 0.1
2017-May-21 16:28N 52°12' E 004°13'0 0.0
2017-May-21 15:58N 52°12' E 004°13'0 0.0
2017-May-21 15:25N 52°12' E 004°13'0 0.0
2017-May-21 14:58N 52°12' E 004°13'0 0.1
2017-May-21 13:58N 52°12' E 004°14'0 0.0
2017-May-21 13:28N 52°12' E 004°14'0 0.1
2017-May-21 12:58N 52°12' E 004°14'0 0.1
2017-May-21 12:28N 52°12' E 004°14'0 0.0
2017-May-21 11:58N 52°12' E 004°14'0 0.0
2017-May-21 11:28N 52°12' E 004°14'0 0.0
2017-May-21 10:58N 52°12' E 004°14'0 0.0
2017-May-21 10:28N 52°12' E 004°14'0 0.0
2017-May-21 09:58N 52°12' E 004°14'0 0.0
2017-May-21 09:28N 52°12' E 004°14'0 0.0
2017-May-21 08:58N 52°12' E 004°14'0 0.0
2017-May-21 08:28N 52°12' E 004°14'0 0.0
2017-May-21 07:58N 52°12' E 004°14'0 0.0
2017-May-21 07:28N 52°12' E 004°14'0 0.2
2017-May-21 06:52N 52°12' E 004°14'0 0.1
2017-May-21 06:28N 52°12' E 004°13'0 0.0
2017-May-21 05:58N 52°12' E 004°13'0 0.0
2017-May-21 05:28N 52°12' E 004°13'0 0.0
2017-May-21 04:58N 52°12' E 004°13'0 0.0
2017-May-21 04:28N 52°12' E 004°13'0 0.0
2017-May-21 03:58N 52°12' E 004°13'0 0.1
2017-May-21 03:28N 52°12' E 004°14'0 0.1
2017-May-21 02:58N 52°12' E 004°14'0 0.1
2017-May-21 02:28N 52°12' E 004°14'0 0.0
2017-May-21 01:58N 52°12' E 004°14'0 0.1
2017-May-21 01:28N 52°12' E 004°14'0 0.0
2017-May-21 00:58N 52°12' E 004°14'0 0.0
2017-May-21 00:28N 52°12' E 004°14'0 0.0
2017-May-20 23:58N 52°12' E 004°14'0 0.1
2017-May-20 23:28N 52°12' E 004°14'0 0.0
2017-May-20 22:58N 52°12' E 004°14'0 0.3
2017-May-20 22:30N 52°12' E 004°14'3 5.5
2017-May-20 22:00N 52°13' E 004°09'611.8
2017-May-20 21:30N 52°12' E 003°60'713.0
2017-May-20 21:00N 52°12' E 003°49'2411.2
2017-May-20 18:52N 51°56' E 003°20'65 4.7
2017-May-20 05:11N 53°01' E 003°19'513.0
2017-May-20 04:48N 53°06' E 003°21'613.0
2017-May-20 04:20N 53°11' E 003°24'33912.1
2017-May-19 00:18N 57°40' E 009°28'1311.6
2017-May-18 23:13N 57°47' E 009°48'211.4
2017-May-18 23:00N 57°48' E 009°52'611.3
2017-May-18 22:28N 57°48' E 010°03'611.4
2017-May-18 21:58N 57°50' E 010°14'511.3
2017-May-18 21:30N 57°50' E 010°23'611.2
2017-May-18 21:00N 57°51' E 010°34'511.0
2017-May-18 20:30N 57°51' E 010°44'611.1
2017-May-18 20:00N 57°46' E 010°50'612.2
2017-May-18 19:30N 57°42' E 010°59'612.6
2017-May-18 19:00N 57°38' E 011°07'613.0
2017-May-18 18:30N 57°33' E 011°16'612.9
2017-May-18 18:00N 57°29' E 011°25'612.5
2017-May-18 17:30N 57°23' E 011°29'713.1
2017-May-18 17:00N 57°17' E 011°34'713.5
2017-May-18 16:29N 57°10' E 011°38'613.1
2017-May-18 15:59N 57°04' E 011°42'12711.2
2017-May-18 04:36N 54°59' E 011°01'212.5
2017-May-18 04:27N 54°58' E 010°59'612.3
2017-May-18 04:00N 54°53' E 010°54'612.7
2017-May-18 03:30N 54°47' E 010°52'5 9.3
2017-May-18 03:00N 54°43' E 010°53'5 9.9
2017-May-18 02:29N 54°39' E 011°00'612.9
2017-May-18 02:00N 54°36' E 011°10'612.9
2017-May-18 01:30N 54°33' E 011°19'612.8
2017-May-18 01:00N 54°31' E 011°30'1812.0
2017-May-17 23:31N 54°26' E 011°59'012.2
2017-May-17 23:30N 54°26' E 011°59'612.0
2017-May-17 23:00N 54°27' E 012°09'611.4
2017-May-17 22:30N 54°33' E 012°12'611.8
2017-May-17 22:00N 54°38' E 012°16'5812.2
2017-May-17 17:18N 55°01' E 013°47'512.3
2017-May-17 16:55N 55°03' E 013°55'612.3
2017-May-17 16:26N 55°05' E 014°05'512.0
2017-May-17 16:00N 55°09' E 014°11'612.1
2017-May-17 15:30N 55°14' E 014°17'612.3
2017-May-17 15:00N 55°18' E 014°24'612.6
2017-May-17 14:31N 55°23' E 014°30'1211.8
2017-May-17 13:31N 55°30' E 014°47'611.5
2017-May-17 13:00N 55°33' E 014°56'611.9
2017-May-17 12:30N 55°35' E 015°06'612.1
2017-May-17 12:00N 55°38' E 015°16'612.2
2017-May-17 11:30N 55°40' E 015°26'612.2
2017-May-17 11:00N 55°41' E 015°36'612.1
2017-May-17 10:30N 55°42' E 015°47'612.2
2017-May-17 10:00N 55°44' E 015°57'612.0
2017-May-17 09:30N 55°46' E 016°08'612.1
2017-May-17 09:00N 55°47' E 016°18'612.2
2017-May-17 08:30N 55°48' E 016°29'712.2
2017-May-17 07:56N 55°50' E 016°41'2212.1
2017-May-17 06:05N 55°56' E 017°19'112.1
2017-May-17 05:58N 55°56' E 017°22'2012.0
2017-May-17 04:19N 56°03' E 017°55'412.0
2017-May-17 03:57N 56°06' E 018°01'712.1
2017-May-17 03:25N 56°09' E 018°11'712.3
2017-May-17 02:53N 56°13' E 018°21'512.4
2017-May-17 02:27N 56°15' E 018°29'2412.1
2017-May-17 00:30N 56°33' E 018°58'1612.5
2017-May-16 23:15N 56°45' E 019°16'312.5
2017-May-16 23:00N 56°47' E 019°20'612.5
2017-May-16 22:30N 56°52' E 019°27'612.5
2017-May-16 22:00N 56°57' E 019°35'612.4
2017-May-16 21:30N 57°02' E 019°42'612.4
2017-May-16 21:00N 57°06' E 019°49'  

Dump ship's entire track history